CYVV

Wiarton Airport

Wiarton, , Canada
METAR CYVV 271100Z 00000KT 10SM BKN080 BKN220 14/12 A2988 RMK AC6CS1 SLP119 DENSITY ALT 800FT
Observed Flight Rules
May-27 @ 11:00 UTC (an hour ago) Visual Flight Rules
Visibility Clouds
10 miles
  • Broken at 8,000' AGL
  • Broken at 22,000' AGL
Temperatures Readings
Current 14°C / 57°F
Dewpoint 12°C / 54°F
Humidity 88%
Altimeter 29.88" Hg
Pressure 1011.9 hPa
Elevation 222
METAR CYVV 271100Z 00000KT 10SM BKN080 BKN220 14/12 A2988 RMK AC6CS1 SLP119 DENSITY ALT 800FT
Observed Flight Rules
May-27 @ 11:00 UTC
(an hour ago)
VFR
Clouds
  • Broken at 8,000' AGL
  • Broken at 22,000' AGL
Temperature Dewpoint
14°C / 57°F 12°C / 54°F
Humidity Altimeter Pressure
88% 29.88" Hg 1011.9 hPa